Time;durP1;ratioP1;P1;durP2;ratioP2;P2;SDS_P1;SDS_P2;PMS_P1;PMS_P2;Temp;Humidity;BMP_temperature;BMP_pressure;BME280_temperature;BME280_humidity;BME280_pressure;Samples;Min_cycle;Max_cycle;Signal;HPM_P1;HPM_P2
2021/12/26 00:00:32;;;;;;;5.07;2.90;;;;;;;-1.10;65.89;100647.91;5091506;28;20039;-67
2021/12/26 00:02:59;;;;;;;6.65;2.90;;;;;;;-1.05;65.47;100639.50;5092664;28;20028;-68
2021/12/26 00:05:25;;;;;;;6.10;2.80;;;;;;;-1.00;65.10;100630.03;5083779;28;20571;-68
2021/12/26 00:07:51;;;;;;;5.60;3.03;;;;;;;-1.03;65.37;100638.31;5092417;28;20036;-69
2021/12/26 00:10:20;;;;;;;4.03;2.60;;;;;;;-1.12;64.97;100637.44;5093037;28;20039;-67
2021/12/26 00:12:46;;;;;;;6.45;3.03;;;;;;;-1.12;65.02;100641.91;5093024;28;20023;-67
2021/12/26 00:15:11;;;;;;;4.72;2.80;;;;;;;-1.14;65.08;100635.94;5092433;28;20077;-67
2021/12/26 00:17:36;;;;;;;4.53;2.90;;;;;;;-1.10;66.60;100640.78;5093239;28;20031;-67
2021/12/26 00:20:05;;;;;;;7.57;3.10;;;;;;;-1.14;65.58;100634.09;5087768;28;20032;-67
2021/12/26 00:22:30;;;;;;;7.78;3.67;;;;;;;-1.13;65.85;100629.63;5080076;28;20086;-66
2021/12/26 00:24:56;;;;;;;6.43;3.10;;;;;;;-1.15;65.93;100620.97;5072507;28;20033;-66
2021/12/26 00:27:21;;;;;;;5.90;3.40;;;;;;;-1.12;66.08;100621.53;5072660;28;20082;-66
2021/12/26 00:29:46;;;;;;;6.30;2.80;;;;;;;-1.12;66.84;100608.25;5072507;28;20131;-66
2021/12/26 00:32:12;;;;;;;6.90;3.22;;;;;;;-1.12;66.16;100616.22;5072719;28;20472;-66
2021/12/26 00:34:37;;;;;;;5.70;3.10;;;;;;;-1.14;66.20;100617.34;5071285;28;20032;-66
2021/12/26 00:37:05;;;;;;;6.30;3.20;;;;;;;-1.25;66.51;100613.13;5080658;28;20032;-67
2021/12/26 00:39:31;;;;;;;9.57;3.13;;;;;;;-1.26;66.23;100614.91;5092848;28;20114;-66
2021/12/26 00:41:56;;;;;;;6.05;3.33;;;;;;;-1.33;66.04;100611.22;5092559;28;20115;-66
2021/12/26 00:44:21;;;;;;;5.35;3.22;;;;;;;-1.30;66.83;100613.56;5092340;28;20028;-66
2021/12/26 00:46:46;;;;;;;5.35;2.95;;;;;;;-1.26;66.68;100604.28;5092361;28;20024;-66
2021/12/26 00:49:12;;;;;;;7.75;3.50;;;;;;;-1.25;66.38;100610.47;5092313;28;20056;-66
2021/12/26 00:51:39;;;;;;;5.65;3.22;;;;;;;-1.25;66.12;100603.31;5090669;28;20344;-66
2021/12/26 00:54:04;;;;;;;6.28;3.03;;;;;;;-1.30;66.16;100613.56;5080601;28;20047;-66
2021/12/26 00:56:29;;;;;;;7.07;3.72;;;;;;;-1.29;66.65;100609.91;5072328;28;20025;-66
2021/12/26 00:58:55;;;;;;;5.50;3.10;;;;;;;-1.30;66.86;100608.25;5072111;28;20058;-66
2021/12/26 01:01:20;;;;;;;5.18;3.15;;;;;;;-1.30;67.13;100615.38;5070026;28;20024;-66
2021/12/26 01:03:45;;;;;;;5.60;3.20;;;;;;;-1.31;66.61;100619.03;5072531;28;20031;-66
2021/12/26 01:06:11;;;;;;;7.85;3.80;;;;;;;-1.35;66.60;100615.84;5074968;28;20024;-66
2021/12/26 01:08:41;;;;;;;6.00;3.35;;;;;;;-1.27;67.38;100618.56;5091052;28;20035;-66
2021/12/26 01:11:18;;;;;;;10.45;3.55;;;;;;;-1.26;66.13;100620.22;5092205;28;20043;-66
2021/12/26 01:13:45;;;;;;;7.57;3.42;;;;;;;-1.26;66.85;100625.53;5092313;28;20107;-66
2021/12/26 01:16:12;;;;;;;6.13;3.60;;;;;;;-1.33;66.74;100628.97;5092124;28;20028;-66
2021/12/26 01:18:43;;;;;;;6.55;3.60;;;;;;;-1.27;66.99;100625.69;5092350;28;20038;-66
2021/12/26 01:21:18;;;;;;;7.68;3.40;;;;;;;-1.18;66.87;100615.97;5087082;28;20522;-66
2021/12/26 01:23:48;;;;;;;5.60;3.40;;;;;;;-1.15;66.03;100613.84;5072136;28;20031;-66
2021/12/26 01:26:14;;;;;;;5.05;3.17;;;;;;;-1.09;67.65;100615.03;5071545;28;20036;-66
2021/12/26 01:28:40;;;;;;;6.70;3.40;;;;;;;-1.08;67.09;100617.53;5075107;28;20067;-66
2021/12/26 01:31:05;;;;;;;6.00;3.40;;;;;;;-1.12;66.13;100610.91;5075626;28;20025;-66
2021/12/26 01:33:31;;;;;;;5.63;3.58;;;;;;;-1.13;67.02;100603.91;5075487;28;20476;-66
2021/12/26 01:35:56;;;;;;;7.03;3.40;;;;;;;-1.09;67.00;100610.59;5079130;28;20036;-66
2021/12/26 01:38:22;;;;;;;5.78;3.58;;;;;;;-1.13;67.36;100598.59;5095957;28;20024;-66
2021/12/26 01:40:51;;;;;;;5.10;3.17;;;;;;;-1.19;65.95;100601.03;5096028;28;20085;-67
2021/12/26 01:43:20;;;;;;;6.25;3.47;;;;;;;-1.16;66.64;100600.72;5095364;28;20383;-66
2021/12/26 01:45:47;;;;;;;4.97;3.28;;;;;;;-1.16;66.82;100606.03;5095767;28;20077;-66
2021/12/26 01:48:13;;;;;;;6.65;3.70;;;;;;;-1.12;67.19;100604.72;5095400;28;20059;-66
2021/12/26 01:50:40;;;;;;;5.88;3.58;;;;;;;-1.18;67.24;100606.19;5090695;28;20407;-67
2021/12/26 01:53:06;;;;;;;7.20;3.72;;;;;;;-1.15;67.52;100599.72;5075298;28;20162;-66
2021/12/26 01:55:41;;;;;;;7.03;3.55;;;;;;;-1.14;66.88;100601.41;5075333;28;20473;-66
2021/12/26 01:58:12;;;;;;;8.00;3.75;;;;;;;-1.07;68.15;100605.94;5075122;28;20051;-66
2021/12/26 02:00:39;;;;;;;8.45;3.83;;;;;;;-1.01;67.17;100604.50;5072766;28;20036;-66
2021/12/26 02:03:05;;;;;;;6.80;3.50;;;;;;;-0.98;67.53;100609.50;5074607;28;20499;-67
2021/12/26 02:05:32;;;;;;;6.80;3.70;;;;;;;-1.01;67.55;100601.84;5075406;28;20380;-66
2021/12/26 02:07:57;;;;;;;6.28;3.90;;;;;;;-1.07;67.19;100603.28;5074649;28;20070;-67
2021/12/26 02:10:22;;;;;;;5.35;3.67;;;;;;;-1.00;68.19;100600.81;5074778;28;20064;-66
2021/12/26 02:12:48;;;;;;;9.35;3.90;;;;;;;-0.99;67.14;100601.69;5074981;28;20025;-66
2021/12/26 02:15:13;;;;;;;5.95;3.42;;;;;;;-0.93;67.62;100595.75;5074820;28;20384;-67
2021/12/26 02:17:39;;;;;;;5.53;3.80;;;;;;;-0.97;66.72;100597.84;5075187;28;20020;-66
2021/12/26 02:20:18;;;;;;;6.47;3.78;;;;;;;-0.98;67.05;100598.03;5078584;28;20064;-66
2021/12/26 02:22:48;;;;;;;7.35;4.03;;;;;;;-0.99;67.00;100597.19;5095121;28;20032;-66
2021/12/26 02:25:28;;;;;;;7.00;3.75;;;;;;;-1.02;66.86;100594.84;5094832;28;20028;-66
2021/12/26 02:27:54;;;;;;;6.65;3.90;;;;;;;-1.08;66.55;100598.13;5095068;28;20379;-66
2021/12/26 02:30:20;;;;;;;5.47;3.83;;;;;;;-1.09;66.58;100592.00;5093205;28;20051;-66
2021/12/26 02:32:48;;;;;;;8.23;4.22;;;;;;;-1.11;67.20;100585.16;5094957;28;20027;-66
2021/12/26 02:35:14;;;;;;;7.68;4.07;;;;;;;-1.13;66.90;100582.66;5093346;28;20085;-66
2021/12/26 02:37:39;;;;;;;5.15;3.63;;;;;;;-1.13;66.39;100582.66;5094523;28;20032;-67
2021/12/26 02:40:05;;;;;;;6.22;3.85;;;;;;;-1.09;67.29;100583.19;5094556;28;20024;-66
2021/12/26 02:42:31;;;;;;;8.35;4.00;;;;;;;-1.10;66.53;100576.22;5094695;28;20028;-66
2021/12/26 02:44:56;;;;;;;7.35;4.13;;;;;;;-1.13;67.20;100577.34;5094449;28;20024;-66
2021/12/26 02:47:36;;;;;;;6.88;3.75;;;;;;;-1.05;67.03;100579.22;5094572;28;20059;-67
2021/12/26 02:50:12;;;;;;;7.75;4.15;;;;;;;-1.02;67.67;100570.94;5084643;28;20386;-66
2021/12/26 02:52:37;;;;;;;8.82;3.90;;;;;;;-0.97;67.05;100575.78;5074246;28;20032;-66
2021/12/26 02:55:03;;;;;;;6.82;4.10;;;;;;;-1.00;66.69;100576.09;5073877;28;20027;-66
2021/12/26 02:57:29;;;;;;;9.10;3.95;;;;;;;-1.03;66.94;100568.44;5073950;28;20078;-66
2021/12/26 02:59:54;;;;;;;5.82;3.90;;;;;;;-1.00;67.47;100579.59;5073856;28;20032;-67
2021/12/26 03:02:20;;;;;;;6.32;3.88;;;;;;;-1.00;67.11;100574.28;5072609;28;20036;-66
2021/12/26 03:04:45;;;;;;;9.10;4.10;;;;;;;-1.02;66.75;100581.56;5073747;28;20029;-66
2021/12/26 03:07:10;;;;;;;9.82;4.25;;;;;;;-1.05;66.90;100573.91;5073754;28;20111;-66
2021/12/26 03:09:45;;;;;;;6.90;3.70;;;;;;;-1.07;66.47;100581.22;5073852;28;20029;-67
2021/12/26 03:12:11;;;;;;;5.57;3.85;;;;;;;-1.05;67.06;100579.22;5073636;28;20428;-66
2021/12/26 03:14:38;;;;;;;6.00;3.92;;;;;;;-1.05;66.74;100573.91;5073538;28;20035;-66
2021/12/26 03:17:04;;;;;;;8.45;3.80;;;;;;;-1.06;66.49;100574.91;5088475;28;20081;-66
2021/12/26 03:19:35;;;;;;;6.10;4.00;;;;;;;-0.98;67.09;100566.16;5094283;28;20039;-66
2021/12/26 03:22:01;;;;;;;6.97;4.03;;;;;;;-0.95;67.15;100563.19;5093717;28;20456;-66
2021/12/26 03:24:27;;;;;;;6.47;4.22;;;;;;;-0.99;66.97;100552.03;5094192;28;20071;-66
2021/12/26 03:27:02;;;;;;;6.28;3.80;;;;;;;-1.02;66.94;100543.56;5093833;28;20024;-66
2021/12/26 03:29:27;;;;;;;6.15;3.83;;;;;;;-1.07;66.79;100538.72;5093622;28;20078;-66
2021/12/26 03:31:52;;;;;;;6.00;4.00;;;;;;;-1.18;66.40;100542.44;5093091;28;20036;-66
2021/12/26 03:34:18;;;;;;;7.70;4.20;;;;;;;-1.23;67.79;100549.25;5093501;28;20845;-66
2021/12/26 03:36:43;;;;;;;7.05;4.13;;;;;;;-1.29;67.31;100551.50;5091862;28;20036;-67
2021/12/26 03:39:08;;;;;;;8.20;4.18;;;;;;;-1.30;67.92;100549.00;5073085;28;20060;-67
2021/12/26 03:41:34;;;;;;;7.15;3.80;;;;;;;-1.27;68.04;100552.19;5073316;28;20496;-66
2021/12/26 03:44:00;;;;;;;8.95;4.80;;;;;;;-1.32;67.21;100554.47;5072726;28;20036;-67
2021/12/26 03:46:26;;;;;;;6.40;4.28;;;;;;;-1.33;67.48;100551.97;5072929;28;20028;-66
2021/12/26 03:48:51;;;;;;;6.38;4.07;;;;;;;-1.38;67.59;100552.44;5073113;28;20082;-66
2021/12/26 03:51:18;;;;;;;6.72;4.18;;;;;;;-1.36;68.62;100561.09;5072754;28;20040;-66
2021/12/26 03:53:44;;;;;;;6.18;3.95;;;;;;;-1.35;68.04;100561.94;5093339;28;20099;-66
2021/12/26 03:56:09;;;;;;;9.40;3.92;;;;;;;-1.33;67.84;100550.16;5093191;28;20047;-66
2021/12/26 03:58:34;;;;;;;6.50;4.00;;;;;;;-1.32;67.83;100546.50;5093431;28;20038;-66
2021/12/26 04:01:00;;;;;;;7.10;4.05;;;;;;;-1.38;68.11;100546.31;5078880;28;20028;-67
2021/12/26 04:03:25;;;;;;;8.93;4.00;;;;;;;-1.36;68.05;100549.63;5072565;28;20028;-67
2021/12/26 04:05:50;;;;;;;6.45;4.03;;;;;;;-1.38;68.09;100552.44;5072920;28;20428;-66
2021/12/26 04:08:16;;;;;;;6.20;3.80;;;;;;;-1.42;67.67;100545.75;5089441;28;20032;-66
2021/12/26 04:10:41;;;;;;;5.45;3.90;;;;;;;-1.45;68.21;100546.94;5092756;28;20032;-67
2021/12/26 04:13:07;;;;;;;4.70;3.63;;;;;;;-1.45;68.19;100546.06;5092807;28;20055;-66
2021/12/26 04:15:32;;;;;;;7.00;3.90;;;;;;;-1.44;69.10;100537.13;5093070;28;20024;-66
2021/12/26 04:17:58;;;;;;;6.30;4.10;;;;;;;-1.41;68.30;100541.31;5091722;28;20107;-66
2021/12/26 04:20:25;;;;;;;10.20;3.90;;;;;;;-1.37;68.47;100548.81;5091450;28;20035;-66
2021/12/26 04:22:51;;;;;;;7.40;4.00;;;;;;;-1.40;68.37;100538.50;5090394;28;20062;-67
2021/12/26 04:25:19;;;;;;;5.90;4.15;;;;;;;-1.48;68.02;100546.38;5092654;28;20036;-66
2021/12/26 04:27:44;;;;;;;5.60;4.05;;;;;;;-1.53;68.40;100533.56;5091572;28;20031;-67
2021/12/26 04:30:12;;;;;;;6.78;3.90;;;;;;;-1.52;68.08;100539.75;5092574;28;20426;-66
2021/12/26 04:32:38;;;;;;;7.65;3.88;;;;;;;-1.53;68.34;100543.38;5092782;28;20097;-66
2021/12/26 04:35:05;;;;;;;7.88;4.00;;;;;;;-1.52;67.80;100545.03;5092527;28;20425;-66
2021/12/26 04:37:30;;;;;;;8.13;4.28;;;;;;;-1.52;68.49;100537.09;5077615;28;20405;-66
2021/12/26 04:39:56;;;;;;;6.07;3.97;;;;;;;-1.54;67.96;100537.25;5072815;28;20127;-66
2021/12/26 04:42:22;;;;;;;8.73;3.75;;;;;;;-1.49;68.93;100534.94;5072283;28;20078;-66
2021/12/26 04:44:49;;;;;;;7.63;4.03;;;;;;;-1.48;68.74;100536.63;5072466;28;20038;-66
2021/12/26 04:47:14;;;;;;;6.65;4.45;;;;;;;-1.50;68.45;100533.25;5072245;28;20035;-66
2021/12/26 04:49:40;;;;;;;5.97;3.60;;;;;;;-1.50;67.98;100524.47;5072309;28;20032;-66
2021/12/26 04:52:05;;;;;;;5.72;3.95;;;;;;;-1.51;68.67;100521.00;5072917;28;20037;-66
2021/12/26 04:54:31;;;;;;;5.68;3.80;;;;;;;-1.52;68.10;100524.63;5072364;28;20107;-66
2021/12/26 04:56:56;;;;;;;5.68;3.90;;;;;;;-1.57;68.47;100526.94;5072125;28;20376;-67
2021/12/26 04:59:21;;;;;;;6.53;4.30;;;;;;;-1.58;68.48;100524.44;5070840;28;20039;-67
2021/12/26 05:01:47;;;;;;;5.95;3.83;;;;;;;-1.64;67.91;100524.03;5071864;28;20020;-66
2021/12/26 05:04:12;;;;;;;8.38;4.18;;;;;;;-1.66;68.93;100526.03;5076128;28;20132;-66
2021/12/26 05:06:37;;;;;;;9.63;4.03;;;;;;;-1.68;68.59;100527.16;5085139;28;20455;-66
2021/12/26 05:09:03;;;;;;;5.80;3.92;;;;;;;-1.66;69.12;100519.88;5096462;28;20474;-66
2021/12/26 05:11:29;;;;;;;6.05;3.70;;;;;;;-1.71;68.92;100519.50;5096199;28;20032;-66
2021/12/26 05:13:54;;;;;;;7.53;4.47;;;;;;;-1.72;68.20;100518.69;5096464;28;20118;-66
2021/12/26 05:16:19;;;;;;;5.25;3.70;;;;;;;-1.75;68.14;100513.69;5087223;28;20391;-66
2021/12/26 05:18:45;;;;;;;6.65;4.03;;;;;;;-1.77;68.79;100514.81;5076318;28;20074;-66
2021/12/26 05:21:10;;;;;;;5.95;4.00;;;;;;;-1.76;69.29;100513.84;5075767;28;20024;-66
2021/12/26 05:23:35;;;;;;;8.13;4.20;;;;;;;-1.81;68.70;100519.59;5075938;28;20076;-67
2021/12/26 05:26:01;;;;;;;7.22;4.18;;;;;;;-1.80;69.14;100511.50;5076178;28;20038;-66
2021/12/26 05:28:26;;;;;;;8.85;4.30;;;;;;;-1.76;69.46;100509.34;5076023;28;20040;-66
2021/12/26 05:30:51;;;;;;;6.15;4.18;;;;;;;-1.79;69.40;100509.66;5091485;28;20041;-66
2021/12/26 05:33:17;;;;;;;7.13;4.30;;;;;;;-1.80;69.24;100507.97;5075814;28;20533;-66
2021/12/26 05:35:42;;;;;;;7.40;3.78;;;;;;;-1.82;68.96;100504.66;5075705;28;20107;-66
2021/12/26 05:38:08;;;;;;;7.22;3.88;;;;;;;-1.89;68.76;100508.91;5075112;28;20111;-67
2021/12/26 05:40:33;;;;;;;5.85;3.85;;;;;;;-1.94;69.22;100503.22;5075933;28;20033;-66
2021/12/26 05:42:59;;;;;;;6.65;3.90;;;;;;;-1.98;69.64;100498.22;5090875;28;20483;-66
2021/12/26 05:45:24;;;;;;;6.97;4.25;;;;;;;-1.98;69.52;100503.53;5095314;28;20036;-67
2021/12/26 05:47:49;;;;;;;6.60;3.65;;;;;;;-1.94;69.71;100497.94;5095802;28;20444;-66
2021/12/26 05:50:19;;;;;;;8.52;4.10;;;;;;;-1.97;69.73;100488.44;5095383;28;20429;-66
2021/12/26 05:52:45;;;;;;;6.60;4.18;;;;;;;-1.91;69.86;100498.44;5095770;28;20089;-66
2021/12/26 05:55:11;;;;;;;5.90;4.15;;;;;;;-1.87;70.22;100494.50;5095470;28;20032;-66
2021/12/26 05:57:37;;;;;;;6.28;3.92;;;;;;;-1.90;69.78;100488.66;5080025;28;20529;-66
2021/12/26 06:00:08;;;;;;;6.47;3.80;;;;;;;-1.97;69.53;100483.97;5075365;28;20044;-66
2021/12/26 06:02:33;;;;;;;7.23;4.20;;;;;;;-2.02;70.00;100486.25;5072839;28;20545;-66
2021/12/26 06:04:58;;;;;;;7.18;4.03;;;;;;;-2.04;69.74;100482.94;5075232;28;20349;-66
2021/12/26 06:07:23;;;;;;;6.40;3.97;;;;;;;-2.02;70.40;100483.59;5074683;28;20061;-66
2021/12/26 06:09:49;;;;;;;6.95;4.50;;;;;;;-1.99;69.79;100479.81;5075123;28;20037;-66
2021/12/26 06:12:16;;;;;;;7.65;4.20;;;;;;;-1.99;69.59;100482.47;5087590;28;20024;-66
2021/12/26 06:14:41;;;;;;;6.28;4.43;;;;;;;-1.98;70.15;100481.47;5094688;28;20039;-66
2021/12/26 06:17:06;;;;;;;5.63;4.15;;;;;;;-2.02;69.62;100470.34;5095289;28;20032;-66
2021/12/26 06:19:32;;;;;;;8.82;4.28;;;;;;;-2.07;70.24;100472.59;5094991;28;20068;-66
2021/12/26 06:21:57;;;;;;;9.68;4.13;;;;;;;-2.07;69.99;100472.59;5094855;28;20063;-66
2021/12/26 06:24:22;;;;;;;5.13;4.07;;;;;;;-2.10;69.58;100480.03;5094885;28;20076;-66
2021/12/26 06:26:48;;;;;;;8.32;4.40;;;;;;;-2.05;70.30;100486.56;5082750;28;20044;-66
2021/12/26 06:29:13;;;;;;;8.80;4.68;;;;;;;-2.02;70.71;100486.25;5074175;28;20139;-66
2021/12/26 06:31:39;;;;;;;9.25;4.30;;;;;;;-1.98;69.89;100482.31;5074786;28;20118;-66
2021/12/26 06:34:04;;;;;;;8.13;4.20;;;;;;;-1.97;70.12;100483.16;5074727;28;20030;-66
2021/12/26 06:36:30;;;;;;;8.07;4.25;;;;;;;-1.98;70.06;100492.94;5074452;28;20028;-66
2021/12/26 06:38:55;;;;;;;6.40;4.55;;;;;;;-2.01;69.48;100482.63;5074593;28;20051;-66
2021/12/26 06:41:22;;;;;;;6.53;4.28;;;;;;;-1.96;70.38;100493.59;5081042;28;20494;-66
2021/12/26 06:43:47;;;;;;;7.10;4.38;;;;;;;-2.01;70.04;100492.38;5084823;28;20033;-66
2021/12/26 06:46:15;;;;;;;8.98;4.55;;;;;;;-2.00;70.00;100505.50;5074191;28;20039;-66
2021/12/26 06:48:41;;;;;;;6.90;4.38;;;;;;;-2.05;70.11;100497.16;5074380;28;20042;-66
2021/12/26 06:51:07;;;;;;;6.57;4.47;;;;;;;-2.03;70.08;100499.66;5074372;28;20033;-66
2021/12/26 06:53:33;;;;;;;8.57;4.10;;;;;;;-2.00;70.36;100500.19;5075071;28;20025;-66
2021/12/26 06:55:58;;;;;;;7.70;4.40;;;;;;;-2.02;70.10;100493.38;5074241;28;20033;-66
2021/12/26 06:58:23;;;;;;;8.95;4.80;;;;;;;-2.04;70.09;100495.34;5073934;28;20039;-66
2021/12/26 07:00:49;;;;;;;8.73;4.68;;;;;;;-2.15;70.16;100485.78;5071791;28;20044;-66
2021/12/26 07:03:14;;;;;;;9.95;4.57;;;;;;;-2.12;69.97;100485.50;5073954;28;20028;-66
2021/12/26 07:05:40;;;;;;;7.93;4.60;;;;;;;-2.12;70.58;100485.50;5074291;28;20035;-66
2021/12/26 07:08:06;;;;;;;6.93;4.40;;;;;;;-2.11;70.43;100481.88;5077661;28;20036;-66
2021/12/26 07:10:31;;;;;;;10.63;4.47;;;;;;;-2.14;70.52;100488.28;5092510;28;20375;-66
2021/12/26 07:12:56;;;;;;;7.75;4.88;;;;;;;-2.20;70.42;100473.00;5094222;28;20113;-66
2021/12/26 07:15:22;;;;;;;8.85;4.80;;;;;;;-2.19;70.85;100492.38;5093665;28;20559;-66
2021/12/26 07:17:47;;;;;;;10.13;5.32;;;;;;;-2.13;71.27;100489.13;5093825;28;20024;-66
2021/12/26 07:20:16;;;;;;;15.27;9.48;;;;;;;-2.10;71.41;100491.47;5094270;28;20039;-66
2021/12/26 07:22:43;;;;;;;25.40;14.65;;;;;;;-2.12;70.71;100484.66;5091049;28;20056;-66
2021/12/26 07:25:09;;;;;;;11.02;6.05;;;;;;;-2.07;70.91;100483.22;5072348;28;20454;-66
2021/12/26 07:27:35;;;;;;;19.90;12.10;;;;;;;-2.12;70.30;100488.16;5073429;28;20108;-66
2021/12/26 07:30:03;;;;;;;16.02;10.27;;;;;;;-2.13;70.84;100494.41;5073440;28;20045;-64
2021/12/26 07:32:29;;;;;;;12.68;7.43;;;;;;;-2.16;70.81;100492.06;5073300;28;20032;-66
2021/12/26 07:34:54;;;;;;;11.15;8.23;;;;;;;-2.15;70.92;100491.09;5073519;28;20028;-66
2021/12/26 07:37:20;;;;;;;8.52;5.30;;;;;;;-2.13;70.51;100473.22;5074777;28;20107;-66
2021/12/26 07:39:45;;;;;;;11.05;5.63;;;;;;;-2.12;71.35;100479.38;5093660;28;20387;-66
2021/12/26 07:42:10;;;;;;;8.57;5.95;;;;;;;-2.12;71.41;100480.19;5093598;28;20428;-66
2021/12/26 07:44:36;;;;;;;8.75;6.32;;;;;;;-2.11;71.10;100481.88;5093334;28;20036;-66
2021/12/26 07:47:02;;;;;;;12.13;6.35;;;;;;;-2.14;71.11;100476.88;5093506;28;20032;-66
2021/12/26 07:49:28;;;;;;;16.52;11.57;;;;;;;-2.10;70.92;100483.50;5093144;28;20157;-66
2021/12/26 07:51:54;;;;;;;29.08;18.58;;;;;;;-2.06;71.34;100479.59;5092761;28;20055;-66
2021/12/26 07:54:22;;;;;;;12.65;8.60;;;;;;;-2.05;71.73;100481.25;5072510;28;20103;-66
2021/12/26 07:56:48;;;;;;;9.77;5.45;;;;;;;-2.05;71.39;100485.75;5073062;28;20028;-66
2021/12/26 07:59:13;;;;;;;8.52;5.00;;;;;;;-2.00;71.19;100483.44;5073072;28;20032;-66
2021/12/26 08:01:39;;;;;;;9.20;5.50;;;;;;;-2.02;71.20;100491.56;5070450;28;20031;-66
2021/12/26 08:04:05;;;;;;;9.68;5.63;;;;;;;-1.96;71.53;100493.59;5086228;28;20028;-66
2021/12/26 08:06:31;;;;;;;7.68;5.30;;;;;;;-1.96;71.80;100495.44;5092949;28;20470;-66
2021/12/26 08:08:57;;;;;;;10.32;6.00;;;;;;;-1.95;71.54;100505.03;5093065;28;20063;-67
2021/12/26 08:11:23;;;;;;;8.18;5.45;;;;;;;-1.93;71.63;100500.44;5092680;28;20131;-66
2021/12/26 08:13:48;;;;;;;10.38;5.60;;;;;;;-1.92;71.31;100493.28;5092811;28;20038;-66
2021/12/26 08:16:14;;;;;;;9.50;5.70;;;;;;;-1.91;71.82;100492.31;5093139;28;20115;-66
2021/12/26 08:18:40;;;;;;;9.57;5.47;;;;;;;-1.86;72.46;100496.16;5081305;28;20063;-66
2021/12/26 08:21:06;;;;;;;8.45;5.30;;;;;;;-1.83;71.99;100500.34;5072784;28;20028;-67
2021/12/26 08:23:31;;;;;;;7.70;5.63;;;;;;;-1.83;72.08;100495.03;5072468;28;20078;-66
2021/12/26 08:25:57;;;;;;;10.65;5.80;;;;;;;-1.78;71.94;100495.41;5072963;28;20032;-66
2021/12/26 08:28:22;;;;;;;14.43;7.90;;;;;;;-1.75;71.89;100492.47;5071770;28;20052;-66
2021/12/26 08:30:48;;;;;;;10.45;7.35;;;;;;;-1.65;71.88;100493.19;5072598;28;20064;-66
2021/12/26 08:33:13;;;;;;;13.35;7.05;;;;;;;-1.61;72.25;100489.25;5082335;28;20032;-66
2021/12/26 08:35:42;;;;;;;11.57;7.03;;;;;;;-1.56;72.10;100490.59;5090783;28;20032;-66
2021/12/26 08:38:08;;;;;;;10.48;6.07;;;;;;;-1.53;71.81;100493.78;5092772;28;20372;-66
2021/12/26 08:40:35;;;;;;;8.32;5.95;;;;;;;-1.50;72.16;100489.97;5092488;28;20082;-66
2021/12/26 08:43:00;;;;;;;10.68;6.03;;;;;;;-1.49;72.75;100486.34;5092722;28;20062;-66
2021/12/26 08:45:26;;;;;;;10.25;6.63;;;;;;;-1.47;72.09;100481.72;5092454;28;20032;-69
2021/12/26 08:47:55;;;;;;;11.35;6.93;;;;;;;-1.39;72.34;100480.94;5083268;28;20056;-70
2021/12/26 08:50:21;;;;;;;13.05;8.23;;;;;;;-1.36;72.10;100484.13;5072182;28;20028;-69
2021/12/26 08:52:47;;;;;;;17.58;14.18;;;;;;;-1.34;72.49;100484.78;5072404;28;20036;-69
2021/12/26 08:55:13;;;;;;;28.00;15.98;;;;;;;-1.31;72.01;100483.66;5072295;28;20032;-69
2021/12/26 08:57:39;;;;;;;14.93;10.57;;;;;;;-1.26;72.57;100481.34;5071875;28;20471;-69
2021/12/26 09:00:07;;;;;;;11.90;6.78;;;;;;;-1.23;72.77;100488.19;5072087;28;20036;-72
2021/12/26 09:02:32;;;;;;;13.27;6.57;;;;;;;-1.21;72.53;100491.50;5077886;28;20043;-69
2021/12/26 09:04:58;;;;;;;16.45;7.35;;;;;;;-1.18;73.03;100488.53;5092467;28;20024;-69
2021/12/26 09:07:23;;;;;;;11.52;7.05;;;;;;;-1.14;72.41;100480.09;5092206;28;20025;-72
2021/12/26 09:09:48;;;;;;;11.10;6.78;;;;;;;-1.14;72.53;100472.13;5092017;28;20032;-69
2021/12/26 09:12:14;;;;;;;11.45;6.43;;;;;;;-1.10;72.27;100476.13;5092529;28;20032;-71
2021/12/26 09:14:39;;;;;;;11.48;6.10;;;;;;;-1.03;72.49;100476.31;5092345;28;20451;-69
2021/12/26 09:17:07;;;;;;;10.48;6.18;;;;;;;-0.95;72.36;100478.19;5085660;28;20060;-74
2021/12/26 09:19:34;;;;;;;10.77;6.78;;;;;;;-0.93;72.75;100481.53;5071667;28;20037;-71
2021/12/26 09:22:03;;;;;;;10.45;5.90;;;;;;;-0.91;72.72;100469.75;5071720;28;20052;-69
2021/12/26 09:24:28;;;;;;;15.80;8.90;;;;;;;-0.92;72.74;100473.41;5071640;28;20024;-69
2021/12/26 09:26:53;;;;;;;15.30;10.40;;;;;;;-0.92;72.74;100494.66;5071750;28;20433;-69
2021/12/26 09:29:20;;;;;;;124.32;68.07;;;;;;;-0.91;72.91;100483.03;5068869;28;20070;-70
2021/12/26 09:31:46;;;;;;;155.95;79.78;;;;;;;-0.85;73.00;100483.38;5078462;28;20162;-69
2021/12/26 09:34:12;;;;;;;79.22;40.30;;;;;;;-0.81;72.69;100477.59;5048040;28;20136;-69
2021/12/26 09:36:37;;;;;;;204.02;104.35;;;;;;;-0.77;73.56;100486.91;5050275;28;20144;-70
2021/12/26 09:39:05;;;;;;;166.13;77.47;;;;;;;-0.70;73.21;100481.78;5050948;28;20109;-71
2021/12/26 09:41:30;;;;;;;81.60;44.47;;;;;;;-0.66;72.57;100485.78;5049505;28;20384;-72
2021/12/26 09:43:55;;;;;;;155.13;83.07;;;;;;;-0.61;72.67;100491.44;5050853;28;20036;-74
2021/12/26 09:46:21;;;;;;;42.30;25.60;;;;;;;-0.58;73.14;100485.81;5051544;28;20037;-70
2021/12/26 09:48:46;;;;;;;26.67;16.20;;;;;;;-0.54;73.72;100496.97;5052497;28;20031;-71
2021/12/26 09:51:12;;;;;;;30.60;16.08;;;;;;;-0.45;73.26;100497.81;5054879;28;20029;-74
2021/12/26 09:53:39;;;;;;;43.42;22.45;;;;;;;-0.42;73.22;100494.84;5038755;28;20097;-70
2021/12/26 09:56:07;;;;;;;25.40;13.63;;;;;;;-0.37;73.50;100484.53;5046546;28;20400;-71
2021/12/26 09:58:35;;;;;;;22.58;13.65;;;;;;;-0.34;73.39;100484.22;5053248;28;20025;-73
2021/12/26 10:01:01;;;;;;;22.50;9.02;;;;;;;-0.26;73.12;100478.91;5052849;28;20079;-73
2021/12/26 10:03:33;;;;;;;21.77;12.70;;;;;;;-0.26;72.85;100478.09;5054609;28;20037;-71
2021/12/26 10:06:13;;;;;;;60.20;38.60;;;;;;;-0.21;73.25;100471.28;5050269;28;20078;-72
2021/12/26 10:09:01;;;;;;;256.25;116.43;;;;;;;-0.11;73.85;100459.66;5034975;28;20032;-71
2021/12/26 10:11:30;;;;;;;28.05;14.68;;;;;;;-0.11;73.69;100455.16;5039161;28;20024;-70
2021/12/26 10:14:10;;;;;;;18.92;10.55;;;;;;;-0.05;73.30;100459.81;5054725;28;20036;-71
2021/12/26 10:16:42;;;;;;;16.30;10.50;;;;;;;-0.01;73.64;100447.03;5054804;28;20121;-73
2021/12/26 10:19:08;;;;;;;20.35;15.55;;;;;;;0.03;72.96;100450.19;5054968;28;20032;-70
2021/12/26 10:21:39;;;;;;;19.90;10.80;;;;;;;0.07;73.22;100452.34;5053414;28;20384;-71
2021/12/26 10:24:10;;;;;;;32.40;23.02;;;;;;;0.12;73.24;100447.38;5054834;28;20052;-72
2021/12/26 10:26:38;;;;;;;23.35;16.10;;;;;;;0.09;73.68;100454.84;5054172;28;20037;-71
2021/12/26 10:29:08;;;;;;;19.38;11.27;;;;;;;0.13;74.14;100446.34;5054553;28;20051;-71
2021/12/26 10:31:35;;;;;;;14.18;9.02;;;;;;;0.18;74.25;100435.22;5054580;28;20104;-72
2021/12/26 10:34:01;;;;;;;18.02;10.55;;;;;;;0.22;73.85;100439.22;5054795;28;20570;-72
2021/12/26 10:36:27;;;;;;;15.63;9.43;;;;;;;0.26;73.68;100434.41;5054039;28;20064;-72
2021/12/26 10:39:13;;;;;;;17.48;10.38;;;;;;;0.30;73.95;100428.56;5053317;28;20021;-71
2021/12/26 10:41:43;;;;;;;18.90;10.85;;;;;;;0.34;73.79;100432.53;5054288;28;20032;-71
2021/12/26 10:44:31;;;;;;;15.20;9.40;;;;;;;0.39;74.14;100429.38;5054501;28;20031;-71
2021/12/26 10:47:19;;;;;;;13.93;9.40;;;;;;;0.40;73.98;100420.38;5054501;28;20043;-70
2021/12/26 10:50:18;;;;;;;14.30;8.73;;;;;;;0.39;73.43;100424.03;5053952;28;20025;-72
2021/12/26 10:52:58;;;;;;;14.20;8.23;;;;;;;0.45;74.16;100414.56;5032313;28;20077;-71
2021/12/26 10:55:30;;;;;;;18.67;9.50;;;;;;;0.46;73.45;100418.88;5034292;28;20060;-73
2021/12/26 10:57:57;;;;;;;16.20;9.13;;;;;;;0.43;74.15;100417.38;5034299;28;20426;-72
2021/12/26 11:00:27;;;;;;;14.18;8.38;;;;;;;0.48;74.24;100424.88;5032681;28;20064;-71
2021/12/26 11:02:59;;;;;;;14.07;8.90;;;;;;;0.56;74.16;100414.22;5034072;28;20125;-73
2021/12/26 11:05:30;;;;;;;17.52;10.30;;;;;;;0.58;73.81;100400.72;5040872;28;20029;-71
2021/12/26 11:07:57;;;;;;;18.17;9.95;;;;;;;0.59;74.34;100400.56;5054234;28;20170;-73
2021/12/26 11:10:37;;;;;;;14.13;9.15;;;;;;;0.65;73.73;100407.88;5053944;28;20033;-74
2021/12/26 11:13:04;;;;;;;12.32;8.77;;;;;;;0.67;73.91;100405.84;5054025;28;20028;-72
2021/12/26 11:15:32;;;;;;;15.45;9.05;;;;;;;0.69;74.47;100398.53;5051714;28;20389;-74
2021/12/26 11:18:01;;;;;;;13.38;8.70;;;;;;;0.71;74.45;100403.69;5060518;28;20059;-73
2021/12/26 11:20:49;;;;;;;17.55;10.00;;;;;;;0.72;74.86;100402.66;5073824;28;20035;-73